createdAt,value
2023-02-08T00:00:59.630Z,9.23
2023-02-08T00:03:29.491Z,8.70
2023-02-08T00:05:57.149Z,8.30
2023-02-08T00:08:24.225Z,8.83
2023-02-08T00:10:51.473Z,8.70
2023-02-08T00:13:18.997Z,7.87
2023-02-08T00:15:47.217Z,7.97
2023-02-08T00:18:14.839Z,8.07
2023-02-08T00:20:43.064Z,7.72
2023-02-08T00:23:10.713Z,8.90
2023-02-08T00:25:38.876Z,8.00
2023-02-08T00:28:09.341Z,7.87
2023-02-08T00:30:37.711Z,8.10
2023-02-08T00:33:05.473Z,7.93
2023-02-08T00:35:32.576Z,7.78
2023-02-08T00:38:00.058Z,8.13
2023-02-08T00:40:27.611Z,7.55
2023-02-08T00:42:54.696Z,8.17
2023-02-08T00:45:21.797Z,8.33
2023-02-08T00:47:49.023Z,8.87
2023-02-08T00:50:16.306Z,8.32
2023-02-08T00:52:43.340Z,8.02
2023-02-08T00:55:10.505Z,8.17
2023-02-08T00:57:37.607Z,8.10
2023-02-08T01:00:06.059Z,7.73
2023-02-08T01:02:34.006Z,8.27
2023-02-08T01:05:01.099Z,7.80
2023-02-08T01:07:28.250Z,8.13
2023-02-08T01:09:55.537Z,8.40
2023-02-08T01:12:22.697Z,8.33
2023-02-08T01:14:49.767Z,8.30
2023-02-08T01:17:16.951Z,8.20
2023-02-08T01:19:44.042Z,8.20
2023-02-08T01:22:11.137Z,8.53
2023-02-08T01:24:38.252Z,8.47
2023-02-08T01:27:05.282Z,8.03
2023-02-08T01:29:32.343Z,8.68
2023-02-08T01:31:59.432Z,8.50
2023-02-08T01:34:26.509Z,7.50
2023-02-08T01:36:53.557Z,8.23
2023-02-08T01:39:20.734Z,8.17
2023-02-08T01:41:47.894Z,7.17
2023-02-08T01:44:14.940Z,7.95
2023-02-08T01:46:48.840Z,7.60
2023-02-08T01:49:22.602Z,7.57
2023-02-08T01:51:58.617Z,7.57
2023-02-08T01:54:29.042Z,7.80
2023-02-08T01:56:56.284Z,7.23
2023-02-08T01:59:34.409Z,6.87
2023-02-08T02:02:03.086Z,6.87
2023-02-08T02:04:31.064Z,7.33
2023-02-08T02:07:00.458Z,7.40
2023-02-08T02:09:56.176Z,7.43
2023-02-08T02:12:24.246Z,7.93
2023-02-08T02:14:51.645Z,7.47
2023-02-08T02:17:20.113Z,7.43
2023-02-08T02:19:59.848Z,7.80
2023-02-08T02:22:32.792Z,7.37
2023-02-08T02:25:21.490Z,6.80
2023-02-08T02:28:07.131Z,7.70
2023-02-08T02:30:40.430Z,7.53
2023-02-08T02:33:29.251Z,7.67
2023-02-08T02:36:32.793Z,7.50
2023-02-08T02:39:10.627Z,8.00
2023-02-08T02:41:56.188Z,7.47
2023-02-08T02:44:26.564Z,7.60
2023-02-08T02:47:05.992Z,7.03
2023-02-08T02:49:50.565Z,7.60
2023-02-08T02:52:28.587Z,7.10
2023-02-08T02:55:03.189Z,7.53
2023-02-08T02:57:32.957Z,7.97
2023-02-08T03:00:00.666Z,7.67
2023-02-08T03:02:28.395Z,7.97
2023-02-08T03:04:57.560Z,7.87
2023-02-08T03:07:46.212Z,8.17
2023-02-08T03:10:25.337Z,7.37
2023-02-08T03:13:01.342Z,7.67
2023-02-08T03:15:47.501Z,8.20
2023-02-08T03:19:06.139Z,7.27
2023-02-08T03:21:44.245Z,7.10
2023-02-08T03:24:28.074Z,6.60
2023-02-08T03:27:22.283Z,6.53
2023-02-08T03:30:01.648Z,6.83
2023-02-08T03:32:50.862Z,6.57
2023-02-08T03:35:27.758Z,6.27
2023-02-08T03:38:01.952Z,6.40
2023-02-08T03:40:31.585Z,7.10
2023-02-08T03:43:05.246Z,6.63
2023-02-08T03:45:39.785Z,6.53
2023-02-08T03:48:10.356Z,6.10
2023-02-08T03:50:41.037Z,6.43
2023-02-08T03:53:10.471Z,5.90
2023-02-08T03:55:52.167Z,6.00
2023-02-08T03:58:27.103Z,7.07
2023-02-08T04:01:05.509Z,6.20
2023-02-08T04:03:33.913Z,6.30
2023-02-08T04:06:01.096Z,6.60
2023-02-08T04:08:28.398Z,6.37
2023-02-08T04:10:55.475Z,6.83
2023-02-08T04:13:22.605Z,7.25
2023-02-08T04:15:49.803Z,6.70
2023-02-08T04:18:17.045Z,5.90
2023-02-08T04:20:44.124Z,7.15
2023-02-08T04:23:11.416Z,6.07
2023-02-08T04:25:38.606Z,6.93
2023-02-08T04:28:05.872Z,6.80
2023-02-08T04:30:33.106Z,6.20
2023-02-08T04:33:00.299Z,6.83
2023-02-08T04:35:27.444Z,6.47
2023-02-08T04:37:54.639Z,6.53
2023-02-08T04:40:21.917Z,6.78
2023-02-08T04:42:49.070Z,6.80
2023-02-08T04:45:16.435Z,6.37
2023-02-08T04:47:43.502Z,6.10
2023-02-08T04:50:10.714Z,5.83
2023-02-08T04:52:37.859Z,5.27
2023-02-08T04:55:05.230Z,6.30
2023-02-08T04:57:32.339Z,4.90
2023-02-08T05:00:00.406Z,5.90
2023-02-08T05:02:27.740Z,6.17
2023-02-08T05:04:54.812Z,7.13
2023-02-08T05:07:22.025Z,6.30
2023-02-08T05:09:49.098Z,6.80
2023-02-08T05:12:16.201Z,5.90
2023-02-08T05:14:43.401Z,6.70
2023-02-08T05:17:10.584Z,6.17
2023-02-08T05:19:37.827Z,6.87
2023-02-08T05:22:05.002Z,6.27
2023-02-08T05:24:32.136Z,6.83
2023-02-08T05:26:59.264Z,6.68
2023-02-08T05:29:26.468Z,6.60
2023-02-08T05:31:53.634Z,6.90
2023-02-08T05:34:20.683Z,7.80
2023-02-08T05:36:48.919Z,7.17
2023-02-08T05:39:16.095Z,7.10
2023-02-08T05:41:43.245Z,7.60
2023-02-08T05:44:10.415Z,7.53
2023-02-08T05:46:38.458Z,7.15
2023-02-08T05:49:05.937Z,7.70
2023-02-08T05:51:33.319Z,7.83
2023-02-08T05:54:00.435Z,7.17
2023-02-08T05:56:28.111Z,7.80
2023-02-08T05:58:55.475Z,7.15
2023-02-08T06:01:23.213Z,6.77
2023-02-08T06:03:50.716Z,7.53
2023-02-08T06:06:17.929Z,7.20
2023-02-08T06:08:45.105Z,7.57
2023-02-08T06:11:12.388Z,7.45
2023-02-08T06:13:39.671Z,8.63
2023-02-08T06:16:07.463Z,7.88
2023-02-08T06:18:34.647Z,7.53
2023-02-08T06:21:01.785Z,8.40
2023-02-08T06:23:28.895Z,7.70
2023-02-08T06:25:56.030Z,8.05
2023-02-08T06:28:23.420Z,7.33
2023-02-08T06:30:51.395Z,8.77
2023-02-08T06:33:19.532Z,8.03
2023-02-08T06:35:52.543Z,8.40
2023-02-08T06:38:20.370Z,8.07
2023-02-08T06:40:48.709Z,8.17
2023-02-08T06:43:17.023Z,7.10
2023-02-08T06:45:47.515Z,8.27
2023-02-08T06:48:15.168Z,8.17
2023-02-08T06:50:42.765Z,7.72
2023-02-08T06:53:10.026Z,8.27
2023-02-08T06:55:37.151Z,8.83
2023-02-08T06:58:04.241Z,8.57
2023-02-08T07:00:31.538Z,8.63
2023-02-08T07:03:00.957Z,8.50
2023-02-08T07:05:28.335Z,8.90
2023-02-08T07:07:55.404Z,7.95
2023-02-08T07:10:22.529Z,8.45
2023-02-08T07:12:49.583Z,8.75
2023-02-08T07:15:16.669Z,8.80
2023-02-08T07:17:43.785Z,8.30
2023-02-08T07:20:11.730Z,7.97
2023-02-08T07:22:39.934Z,8.18
2023-02-08T07:25:08.338Z,8.73
2023-02-08T07:27:35.652Z,9.45
2023-02-08T07:30:03.040Z,8.95
2023-02-08T07:32:32.612Z,8.68
2023-02-08T07:35:01.588Z,7.32
2023-02-08T07:37:31.903Z,8.15
2023-02-08T07:40:01.146Z,8.35
2023-02-08T07:42:28.439Z,8.23
2023-02-08T07:44:55.556Z,8.68
2023-02-08T07:47:22.695Z,8.38
2023-02-08T07:49:49.790Z,7.63
2023-02-08T07:52:16.830Z,7.97
2023-02-08T07:54:44.032Z,7.97
2023-02-08T07:57:11.214Z,8.38
2023-02-08T07:59:38.266Z,7.93
2023-02-08T08:02:05.443Z,8.15
2023-02-08T08:04:32.704Z,7.57
2023-02-08T08:06:59.772Z,6.65
2023-02-08T08:09:27.059Z,7.38
2023-02-08T08:11:54.207Z,7.07
2023-02-08T08:14:21.310Z,7.05
2023-02-08T08:16:48.474Z,7.78
2023-02-08T08:19:15.563Z,7.97
2023-02-08T08:21:42.668Z,7.68
2023-02-08T08:24:09.992Z,7.65
2023-02-08T08:26:37.127Z,7.15
2023-02-08T08:29:04.251Z,7.90
2023-02-08T08:31:31.392Z,7.38
2023-02-08T08:33:58.536Z,7.32
2023-02-08T08:36:25.663Z,7.25
2023-02-08T08:38:53.110Z,7.30
2023-02-08T08:41:22.495Z,7.22
2023-02-08T08:43:49.736Z,7.82
2023-02-08T08:46:18.023Z,7.20
2023-02-08T08:48:45.893Z,8.35
2023-02-08T08:51:14.285Z,7.13
2023-02-08T08:53:41.476Z,7.05
2023-02-08T08:56:08.819Z,8.07
2023-02-08T08:58:35.867Z,7.28
2023-02-08T09:01:02.979Z,7.97
2023-02-08T09:03:30.711Z,8.38
2023-02-08T09:05:57.989Z,7.43
2023-02-08T09:08:25.008Z,8.55
2023-02-08T09:10:52.154Z,6.70
2023-02-08T09:13:20.188Z,7.20
2023-02-08T09:15:48.784Z,7.65
2023-02-08T09:18:16.170Z,7.22
2023-02-08T09:20:43.734Z,7.57
2023-02-08T09:23:11.435Z,7.35
2023-02-08T09:25:38.846Z,8.20
2023-02-08T09:28:06.113Z,7.55
2023-02-08T09:30:33.657Z,7.28
2023-02-08T09:33:00.853Z,7.97
2023-02-08T09:35:28.061Z,7.20
2023-02-08T09:37:58.167Z,7.60
2023-02-08T09:40:31.554Z,6.55
2023-02-08T09:43:31.768Z,6.95
2023-02-08T09:46:08.496Z,7.82
2023-02-08T09:48:38.167Z,8.63
2023-02-08T09:51:10.754Z,6.97
2023-02-08T09:53:44.731Z,7.55
2023-02-08T09:56:15.855Z,7.15
2023-02-08T09:58:49.955Z,7.18
2023-02-08T10:01:25.181Z,6.93
2023-02-08T10:04:08.096Z,7.82
2023-02-08T10:06:35.632Z,7.22
2023-02-08T10:09:06.664Z,7.32
2023-02-08T10:12:15.304Z,7.32
2023-02-08T10:14:54.667Z,7.78
2023-02-08T10:18:01.957Z,7.88
2023-02-08T10:20:52.535Z,7.68
2023-02-08T10:23:44.412Z,7.57
2023-02-08T10:26:17.970Z,8.27
2023-02-08T10:29:10.872Z,8.05
2023-02-08T10:31:55.863Z,7.28
2023-02-08T10:34:47.812Z,7.63
2023-02-08T10:37:20.697Z,7.80
2023-02-08T10:39:50.888Z,7.82
2023-02-08T10:42:24.444Z,7.55
2023-02-08T10:45:24.584Z,7.35
2023-02-08T10:47:58.550Z,6.40
2023-02-08T10:50:32.422Z,7.15
2023-02-08T10:52:59.930Z,7.15
2023-02-08T10:55:27.588Z,6.53
2023-02-08T10:57:59.949Z,8.05
2023-02-08T11:00:33.782Z,6.43
2023-02-08T11:03:35.968Z,6.32
2023-02-08T11:06:03.400Z,6.75
2023-02-08T11:08:30.525Z,7.30
2023-02-08T11:11:09.143Z,6.68
2023-02-08T11:13:38.448Z,6.97
2023-02-08T11:16:07.641Z,7.22
2023-02-08T11:18:52.948Z,6.63
2023-02-08T11:21:39.119Z,7.28
2023-02-08T11:24:30.020Z,7.72
2023-02-08T11:26:57.114Z,7.72
2023-02-08T11:29:27.182Z,7.82
2023-02-08T11:32:00.223Z,7.90
2023-02-08T11:37:14.994Z,6.90
2023-02-08T11:40:00.819Z,7.40
2023-02-08T11:42:37.008Z,6.50
2023-02-08T11:45:05.452Z,6.70
2023-02-08T11:47:37.923Z,7.30
2023-02-08T11:50:08.560Z,7.40
2023-02-08T11:52:42.786Z,7.53
2023-02-08T11:55:17.464Z,6.97
2023-02-08T11:58:23.509Z,7.38
2023-02-08T12:01:30.479Z,7.38
2023-02-08T12:04:00.186Z,7.00
2023-02-08T12:07:01.530Z,7.50
2023-02-08T12:10:03.759Z,7.07
2023-02-08T12:12:58.214Z,7.72
2023-02-08T12:15:48.143Z,8.30
2023-02-08T12:18:44.981Z,7.68
2023-02-08T12:21:29.770Z,7.85
2023-02-08T12:24:22.681Z,7.47
2023-02-08T12:27:23.253Z,8.10
2023-02-08T12:30:08.740Z,10.15
2023-02-08T12:32:57.978Z,7.10
2023-02-08T12:35:57.617Z,7.75
2023-02-08T12:39:18.291Z,7.55
2023-02-08T12:42:16.508Z,7.22
2023-02-08T12:45:11.177Z,7.80
2023-02-08T12:48:11.965Z,7.65
2023-02-08T12:50:47.932Z,7.57
2023-02-08T12:53:37.792Z,6.72
2023-02-08T12:56:24.242Z,6.53
2023-02-08T12:59:08.240Z,7.10
2023-02-08T13:01:51.676Z,7.15
2023-02-08T13:04:29.932Z,7.43
2023-02-08T13:07:04.316Z,7.47
2023-02-08T13:09:35.639Z,7.00
2023-02-08T13:12:14.564Z,7.40
2023-02-08T13:15:31.215Z,6.55
2023-02-08T13:18:06.313Z,6.72
2023-02-08T13:21:00.181Z,7.47
2023-02-08T13:23:38.448Z,6.68
2023-02-08T13:26:18.057Z,7.13
2023-02-08T13:28:52.362Z,6.70
2023-02-08T13:31:36.217Z,6.72
2023-02-08T13:34:14.300Z,7.53
2023-02-08T13:36:51.562Z,6.32
2023-02-08T13:39:42.188Z,6.32
2023-02-08T13:42:40.883Z,6.55
2023-02-08T13:45:10.842Z,6.97
2023-02-08T13:47:44.799Z,7.35
2023-02-08T13:50:35.013Z,8.02
2023-02-08T13:53:03.602Z,7.50
2023-02-08T13:55:33.944Z,7.00
2023-02-08T13:58:27.459Z,7.13
2023-02-08T14:00:55.008Z,6.90
2023-02-08T14:03:22.079Z,7.07
2023-02-08T14:05:57.974Z,6.82
2023-02-08T14:08:35.301Z,6.85
2023-02-08T14:11:07.912Z,6.72
2023-02-08T14:13:46.947Z,7.28
2023-02-08T14:16:40.505Z,6.60
2023-02-08T14:19:16.822Z,6.30
2023-02-08T14:22:08.627Z,6.90
2023-02-08T14:24:43.947Z,6.47
2023-02-08T14:27:28.870Z,6.57
2023-02-08T14:30:13.495Z,7.00
2023-02-08T14:32:43.252Z,7.00
2023-02-08T14:35:24.151Z,7.05
2023-02-08T14:38:20.343Z,7.82
2023-02-08T14:40:49.642Z,7.15
2023-02-08T14:43:19.833Z,8.23
2023-02-08T14:45:49.876Z,8.70
2023-02-08T14:48:32.039Z,7.55
2023-02-08T14:51:11.352Z,8.68
2023-02-08T14:53:55.831Z,8.07
2023-02-08T14:56:29.785Z,7.55
2023-02-08T14:59:12.376Z,7.80
2023-02-08T15:01:53.952Z,6.88
2023-02-08T15:04:21.857Z,7.63
2023-02-08T15:07:00.194Z,6.65
2023-02-08T15:09:36.139Z,8.27
2023-02-08T15:12:09.575Z,7.57
2023-02-08T15:14:40.073Z,7.10
2023-02-08T15:17:19.306Z,8.05
2023-02-08T15:19:47.046Z,7.68
2023-02-08T15:22:30.176Z,7.80
2023-02-08T15:27:34.533Z,7.00
2023-02-08T15:30:01.771Z,7.53
2023-02-08T15:32:31.605Z,7.78
2023-02-08T15:35:02.419Z,8.15
2023-02-08T15:37:34.405Z,7.43
2023-02-08T15:40:03.235Z,7.07
2023-02-08T15:42:34.112Z,7.65
2023-02-08T15:45:02.998Z,7.88
2023-02-08T15:47:33.002Z,7.70
2023-02-08T15:50:01.194Z,7.28
2023-02-08T15:52:33.321Z,7.97
2023-02-08T15:55:00.446Z,7.80
2023-02-08T15:57:54.981Z,7.65
2023-02-08T16:00:29.085Z,7.82
2023-02-08T16:03:08.662Z,7.93
2023-02-08T16:05:36.673Z,6.95
2023-02-08T16:08:04.869Z,7.57
2023-02-08T16:10:41.588Z,7.75
2023-02-08T16:13:28.018Z,8.88
2023-02-08T16:16:08.475Z,7.78
2023-02-08T16:18:50.141Z,6.90
2023-02-08T16:21:36.027Z,7.35
2023-02-08T16:24:19.212Z,7.82
2023-02-08T16:29:32.602Z,6.95
2023-02-08T16:32:12.945Z,6.97
2023-02-08T16:34:41.022Z,8.20
2023-02-08T16:37:29.686Z,8.15
2023-02-08T16:39:59.645Z,7.70
2023-02-08T16:42:36.957Z,7.07
2023-02-08T16:45:17.278Z,6.90
2023-02-08T16:47:56.901Z,7.07
2023-02-08T16:50:27.770Z,7.25
2023-02-08T16:53:00.033Z,7.00
2023-02-08T16:55:32.590Z,7.00
2023-02-08T16:58:00.881Z,6.75
2023-02-08T17:00:30.776Z,6.60
2023-02-08T17:02:58.285Z,7.07
2023-02-08T17:05:31.282Z,6.78
2023-02-08T17:10:32.655Z,6.47
2023-02-08T17:13:18.660Z,6.45
2023-02-08T17:15:49.077Z,6.80
2023-02-08T17:18:16.591Z,7.00
2023-02-08T17:20:43.823Z,6.30
2023-02-08T17:23:11.894Z,6.43
2023-02-08T17:25:39.332Z,6.57
2023-02-08T17:28:11.730Z,6.68
2023-02-08T17:30:41.892Z,6.13
2023-02-08T17:33:18.061Z,6.90
2023-02-08T17:35:48.023Z,6.93
2023-02-08T17:38:15.663Z,5.82
2023-02-08T17:40:43.450Z,6.22
2023-02-08T17:43:11.847Z,6.95
2023-02-08T17:45:41.665Z,7.63
2023-02-08T17:48:09.105Z,7.10
2023-02-08T17:50:36.384Z,6.05
2023-02-08T17:53:04.182Z,5.82
2023-02-08T17:55:31.722Z,6.18
2023-02-08T17:57:59.001Z,5.45
2023-02-08T18:00:26.561Z,5.50
2023-02-08T18:02:55.578Z,5.40
2023-02-08T18:05:26.797Z,5.38
2023-02-08T18:07:55.805Z,5.28
2023-02-08T18:10:24.559Z,5.75
2023-02-08T18:12:51.912Z,5.13
2023-02-08T18:15:21.720Z,5.47
2023-02-08T18:17:50.624Z,4.70
2023-02-08T18:20:17.984Z,5.15
2023-02-08T18:22:45.676Z,4.82
2023-02-08T18:25:14.619Z,4.93
2023-02-08T18:27:42.116Z,4.68
2023-02-08T18:30:10.663Z,5.00
2023-02-08T18:32:37.883Z,5.43
2023-02-08T18:35:07.423Z,5.55
2023-02-08T18:37:35.499Z,5.43
2023-02-08T18:40:02.719Z,4.97
2023-02-08T18:42:30.516Z,5.47
2023-02-08T18:44:57.637Z,4.82
2023-02-08T18:47:24.861Z,4.82
2023-02-08T18:49:56.393Z,4.80
2023-02-08T18:52:24.125Z,5.25
2023-02-08T18:54:51.553Z,5.53
2023-02-08T18:57:18.771Z,5.10
2023-02-08T18:59:45.920Z,5.40
2023-02-08T19:02:22.125Z,5.10
2023-02-08T19:04:49.582Z,5.28
2023-02-08T19:07:16.695Z,4.90
2023-02-08T19:09:44.284Z,5.28
2023-02-08T19:12:15.573Z,4.95
2023-02-08T19:14:43.698Z,5.25
2023-02-08T19:17:13.070Z,5.22
2023-02-08T19:19:42.281Z,5.43
2023-02-08T19:22:09.904Z,4.97
2023-02-08T19:24:37.236Z,5.28
2023-02-08T19:27:04.354Z,5.20
2023-02-08T19:29:33.464Z,5.25
2023-02-08T19:32:01.055Z,5.53
2023-02-08T19:34:28.286Z,9.65
2023-02-08T19:36:55.760Z,5.70
2023-02-08T19:39:25.997Z,5.50
2023-02-08T19:41:54.311Z,5.35
2023-02-08T19:44:22.010Z,5.72
2023-02-08T19:46:54.926Z,6.18
2023-02-08T19:51:50.389Z,5.63
2023-02-08T19:54:19.109Z,5.60
2023-02-08T19:56:47.374Z,5.50
2023-02-08T19:59:24.177Z,5.70
2023-02-08T20:01:51.684Z,5.78
2023-02-08T20:04:19.031Z,5.80
2023-02-08T20:06:46.714Z,6.45
2023-02-08T20:09:16.832Z,5.13
2023-02-08T20:11:56.328Z,5.90
2023-02-08T20:14:25.688Z,6.57
2023-02-08T20:16:52.960Z,6.10
2023-02-08T20:19:20.327Z,6.65
2023-02-08T20:21:47.531Z,5.80
2023-02-08T20:24:15.325Z,5.38
2023-02-08T20:26:45.286Z,5.70
2023-02-08T20:29:13.578Z,6.20
2023-02-08T20:31:43.142Z,5.65
2023-02-08T20:34:13.965Z,5.65
2023-02-08T20:36:49.567Z,5.68
2023-02-08T20:39:20.978Z,5.80
2023-02-08T20:41:48.508Z,6.35
2023-02-08T20:44:18.068Z,5.90
2023-02-08T20:46:46.691Z,5.88
2023-02-08T20:49:17.780Z,6.65
2023-02-08T20:51:44.883Z,6.20
2023-02-08T20:54:12.047Z,6.03
2023-02-08T20:56:39.781Z,6.40
2023-02-08T20:59:09.303Z,6.60
2023-02-08T21:01:36.967Z,6.35
2023-02-08T21:04:04.670Z,6.25
2023-02-08T21:06:37.690Z,6.00
2023-02-08T21:09:11.581Z,6.03
2023-02-08T21:11:38.855Z,5.78
2023-02-08T21:14:07.078Z,6.15
2023-02-08T21:16:34.461Z,5.72
2023-02-08T21:19:01.639Z,6.15
2023-02-08T21:21:28.904Z,5.97
2023-02-08T21:23:57.969Z,6.05
2023-02-08T21:26:26.068Z,6.82
2023-02-08T21:28:55.648Z,5.55
2023-02-08T21:31:24.117Z,5.97
2023-02-08T21:33:52.345Z,6.28
2023-02-08T21:36:22.097Z,6.57
2023-02-08T21:38:49.563Z,6.82
2023-02-08T21:41:28.218Z,6.38
2023-02-08T21:43:57.517Z,7.05
2023-02-08T21:46:25.523Z,6.38
2023-02-08T21:49:11.526Z,6.50
2023-02-08T21:51:57.688Z,6.68
2023-02-08T21:54:42.663Z,6.50
2023-02-08T21:57:30.641Z,6.90
2023-02-08T21:59:59.655Z,6.53
2023-02-08T22:02:29.244Z,6.78
2023-02-08T22:04:58.442Z,6.78
2023-02-08T22:07:27.054Z,6.72
2023-02-08T22:09:54.969Z,6.47
2023-02-08T22:12:23.260Z,5.90
2023-02-08T22:14:50.893Z,6.43
2023-02-08T22:17:18.043Z,6.70
2023-02-08T22:19:45.441Z,6.63
2023-02-08T22:22:12.872Z,6.68
2023-02-08T22:24:40.014Z,6.65
2023-02-08T22:27:07.117Z,6.50
2023-02-08T22:29:34.259Z,6.38
2023-02-08T22:32:01.660Z,6.28
2023-02-08T22:34:29.358Z,5.90
2023-02-08T22:36:56.489Z,5.78
2023-02-08T22:39:23.659Z,6.32
2023-02-08T22:41:50.846Z,6.43
2023-02-08T22:44:18.067Z,6.07
2023-02-08T22:46:45.256Z,5.80
2023-02-08T22:49:12.581Z,6.03
2023-02-08T22:51:39.751Z,6.43
2023-02-08T22:54:06.963Z,5.70
2023-02-08T22:56:34.069Z,6.18
2023-02-08T22:59:01.156Z,6.03
2023-02-08T23:01:28.297Z,5.80
2023-02-08T23:03:55.397Z,5.53
2023-02-08T23:06:22.513Z,6.38
2023-02-08T23:08:49.687Z,6.05
2023-02-08T23:11:17.261Z,5.85
2023-02-08T23:13:44.364Z,5.80
2023-02-08T23:16:16.376Z,6.40
2023-02-08T23:18:44.447Z,6.03
2023-02-08T23:21:16.794Z,6.25
2023-02-08T23:23:45.214Z,5.70
2023-02-08T23:26:16.597Z,5.72
2023-02-08T23:28:44.703Z,6.07
2023-02-08T23:31:17.782Z,6.07
2023-02-08T23:33:45.011Z,5.82
2023-02-08T23:36:15.262Z,6.43
2023-02-08T23:38:44.636Z,6.28
2023-02-08T23:41:17.414Z,6.75
2023-02-08T23:43:44.560Z,6.25
2023-02-08T23:46:16.407Z,6.47
2023-02-08T23:48:44.326Z,6.00
2023-02-08T23:51:11.431Z,6.20
2023-02-08T23:53:38.802Z,6.35
2023-02-08T23:56:18.186Z,6.30
2023-02-08T23:58:47.059Z,6.68
